sensor_id;sensor_type;location;lat;lon;timestamp;P1;durP1;ratioP1;P2;durP2;ratioP2
15240;SDS011;7723;52.170;9.978;2023-07-24T00:00:44;1.08;;;0.98;;
15240;SDS011;7723;52.170;9.978;2023-07-24T00:03:11;1.33;;;1.10;;
15240;SDS011;7723;52.170;9.978;2023-07-24T00:05:38;2.10;;;1.10;;
15240;SDS011;7723;52.170;9.978;2023-07-24T00:08:05;1.80;;;1.30;;
15240;SDS011;7723;52.170;9.978;2023-07-24T00:10:33;1.33;;;0.90;;
15240;SDS011;7723;52.170;9.978;2023-07-24T00:13:01;1.13;;;0.95;;
15240;SDS011;7723;52.170;9.978;2023-07-24T00:15:28;0.85;;;0.77;;
15240;SDS011;7723;52.170;9.978;2023-07-24T00:17:55;1.75;;;1.10;;
15240;SDS011;7723;52.170;9.978;2023-07-24T00:20:23;0.80;;;0.80;;
15240;SDS011;7723;52.170;9.978;2023-07-24T00:22:51;1.02;;;0.90;;
15240;SDS011;7723;52.170;9.978;2023-07-24T00:25:18;1.40;;;0.90;;
15240;SDS011;7723;52.170;9.978;2023-07-24T00:27:45;1.58;;;1.20;;
15240;SDS011;7723;52.170;9.978;2023-07-24T00:30:13;2.60;;;1.33;;
15240;SDS011;7723;52.170;9.978;2023-07-24T00:32:41;1.23;;;1.13;;
15240;SDS011;7723;52.170;9.978;2023-07-24T00:35:08;1.90;;;1.00;;
15240;SDS011;7723;52.170;9.978;2023-07-24T00:37:35;1.45;;;1.08;;
15240;SDS011;7723;52.170;9.978;2023-07-24T00:40:03;1.48;;;1.20;;
15240;SDS011;7723;52.170;9.978;2023-07-24T00:42:31;3.25;;;1.20;;
15240;SDS011;7723;52.170;9.978;2023-07-24T00:44:58;2.05;;;1.00;;
15240;SDS011;7723;52.170;9.978;2023-07-24T00:47:26;1.20;;;1.10;;
15240;SDS011;7723;52.170;9.978;2023-07-24T00:49:54;1.02;;;0.93;;
15240;SDS011;7723;52.170;9.978;2023-07-24T00:52:22;1.77;;;1.40;;
15240;SDS011;7723;52.170;9.978;2023-07-24T00:54:49;1.50;;;1.40;;
15240;SDS011;7723;52.170;9.978;2023-07-24T00:57:17;1.88;;;1.58;;
15240;SDS011;7723;52.170;9.978;2023-07-24T00:59:44;1.30;;;1.17;;
15240;SDS011;7723;52.170;9.978;2023-07-24T01:02:12;1.23;;;1.13;;
15240;SDS011;7723;52.170;9.978;2023-07-24T01:04:41;1.35;;;1.00;;
15240;SDS011;7723;52.170;9.978;2023-07-24T01:07:08;1.63;;;1.30;;
15240;SDS011;7723;52.170;9.978;2023-07-24T01:09:43;1.30;;;1.20;;
15240;SDS011;7723;52.170;9.978;2023-07-24T01:12:13;1.33;;;1.20;;
15240;SDS011;7723;52.170;9.978;2023-07-24T01:14:46;1.40;;;1.30;;
15240;SDS011;7723;52.170;9.978;2023-07-24T01:17:19;1.60;;;1.23;;
15240;SDS011;7723;52.170;9.978;2023-07-24T01:19:52;2.40;;;1.30;;
15240;SDS011;7723;52.170;9.978;2023-07-24T01:22:24;1.45;;;1.30;;
15240;SDS011;7723;52.170;9.978;2023-07-24T01:25:01;1.17;;;1.08;;
15240;SDS011;7723;52.170;9.978;2023-07-24T01:27:36;1.98;;;1.30;;
15240;SDS011;7723;52.170;9.978;2023-07-24T01:30:08;1.42;;;1.33;;
15240;SDS011;7723;52.170;9.978;2023-07-24T01:32:36;1.92;;;1.73;;
15240;SDS011;7723;52.170;9.978;2023-07-24T01:35:03;1.52;;;1.27;;
15240;SDS011;7723;52.170;9.978;2023-07-24T01:37:31;2.17;;;1.45;;
15240;SDS011;7723;52.170;9.978;2023-07-24T01:40:00;1.73;;;1.58;;
15240;SDS011;7723;52.170;9.978;2023-07-24T01:42:29;1.42;;;1.33;;
15240;SDS011;7723;52.170;9.978;2023-07-24T01:44:58;1.73;;;1.52;;
15240;SDS011;7723;52.170;9.978;2023-07-24T01:47:25;1.92;;;1.80;;
15240;SDS011;7723;52.170;9.978;2023-07-24T01:49:52;1.92;;;1.27;;
15240;SDS011;7723;52.170;9.978;2023-07-24T01:52:19;1.88;;;1.60;;
15240;SDS011;7723;52.170;9.978;2023-07-24T01:54:46;1.75;;;1.50;;
15240;SDS011;7723;52.170;9.978;2023-07-24T01:57:14;1.60;;;1.50;;
15240;SDS011;7723;52.170;9.978;2023-07-24T01:59:41;5.18;;;1.70;;
15240;SDS011;7723;52.170;9.978;2023-07-24T02:02:10;1.77;;;1.67;;
15240;SDS011;7723;52.170;9.978;2023-07-24T02:04:37;1.60;;;1.50;;
15240;SDS011;7723;52.170;9.978;2023-07-24T02:07:05;2.00;;;1.40;;
15240;SDS011;7723;52.170;9.978;2023-07-24T02:09:33;1.27;;;1.10;;
15240;SDS011;7723;52.170;9.978;2023-07-24T02:12:00;1.73;;;1.55;;
15240;SDS011;7723;52.170;9.978;2023-07-24T02:14:28;1.50;;;1.40;;
15240;SDS011;7723;52.170;9.978;2023-07-24T02:16:55;1.40;;;1.30;;
15240;SDS011;7723;52.170;9.978;2023-07-24T02:19:23;1.63;;;1.30;;
15240;SDS011;7723;52.170;9.978;2023-07-24T02:21:50;1.92;;;1.40;;
15240;SDS011;7723;52.170;9.978;2023-07-24T02:24:17;1.45;;;1.35;;
15240;SDS011;7723;52.170;9.978;2023-07-24T02:26:45;1.42;;;1.33;;
15240;SDS011;7723;52.170;9.978;2023-07-24T02:29:12;1.85;;;1.55;;
15240;SDS011;7723;52.170;9.978;2023-07-24T02:31:39;1.52;;;1.20;;
15240;SDS011;7723;52.170;9.978;2023-07-24T02:34:06;2.03;;;1.50;;
15240;SDS011;7723;52.170;9.978;2023-07-24T02:36:34;1.50;;;1.40;;
15240;SDS011;7723;52.170;9.978;2023-07-24T02:39:03;1.52;;;1.42;;
15240;SDS011;7723;52.170;9.978;2023-07-24T02:41:30;1.60;;;1.50;;
15240;SDS011;7723;52.170;9.978;2023-07-24T02:43:57;2.58;;;1.45;;
15240;SDS011;7723;52.170;9.978;2023-07-24T02:46:24;2.33;;;1.50;;
15240;SDS011;7723;52.170;9.978;2023-07-24T02:48:51;1.58;;;1.40;;
15240;SDS011;7723;52.170;9.978;2023-07-24T02:51:18;1.60;;;1.50;;
15240;SDS011;7723;52.170;9.978;2023-07-24T02:53:47;3.40;;;1.40;;
15240;SDS011;7723;52.170;9.978;2023-07-24T02:56:14;3.10;;;1.67;;
15240;SDS011;7723;52.170;9.978;2023-07-24T02:58:41;1.50;;;1.40;;
15240;SDS011;7723;52.170;9.978;2023-07-24T03:01:08;1.58;;;1.40;;
15240;SDS011;7723;52.170;9.978;2023-07-24T03:03:37;1.98;;;1.70;;
15240;SDS011;7723;52.170;9.978;2023-07-24T03:06:04;2.22;;;1.88;;
15240;SDS011;7723;52.170;9.978;2023-07-24T03:08:31;1.77;;;1.67;;
15240;SDS011;7723;52.170;9.978;2023-07-24T03:11:00;2.30;;;1.60;;
15240;SDS011;7723;52.170;9.978;2023-07-24T03:13:27;3.55;;;1.70;;
15240;SDS011;7723;52.170;9.978;2023-07-24T03:15:55;2.17;;;1.80;;
15240;SDS011;7723;52.170;9.978;2023-07-24T03:18:24;3.58;;;1.75;;
15240;SDS011;7723;52.170;9.978;2023-07-24T03:20:51;2.33;;;1.50;;
15240;SDS011;7723;52.170;9.978;2023-07-24T03:23:18;2.25;;;2.03;;
15240;SDS011;7723;52.170;9.978;2023-07-24T03:25:45;2.60;;;1.60;;
15240;SDS011;7723;52.170;9.978;2023-07-24T03:28:14;2.53;;;1.58;;
15240;SDS011;7723;52.170;9.978;2023-07-24T03:30:41;2.67;;;2.30;;
15240;SDS011;7723;52.170;9.978;2023-07-24T03:33:08;7.70;;;2.17;;
15240;SDS011;7723;52.170;9.978;2023-07-24T03:35:37;1.88;;;1.75;;
15240;SDS011;7723;52.170;9.978;2023-07-24T03:38:04;2.22;;;2.00;;
15240;SDS011;7723;52.170;9.978;2023-07-24T03:40:31;2.00;;;1.80;;
15240;SDS011;7723;52.170;9.978;2023-07-24T03:42:58;2.30;;;1.75;;
15240;SDS011;7723;52.170;9.978;2023-07-24T03:45:27;2.17;;;1.63;;
15240;SDS011;7723;52.170;9.978;2023-07-24T03:47:54;1.65;;;1.55;;
15240;SDS011;7723;52.170;9.978;2023-07-24T03:50:21;2.03;;;1.50;;
15240;SDS011;7723;52.170;9.978;2023-07-24T03:52:48;2.88;;;1.55;;
15240;SDS011;7723;52.170;9.978;2023-07-24T03:55:15;1.73;;;1.48;;
15240;SDS011;7723;52.170;9.978;2023-07-24T03:57:42;2.42;;;1.58;;
15240;SDS011;7723;52.170;9.978;2023-07-24T04:00:10;2.63;;;1.35;;
15240;SDS011;7723;52.170;9.978;2023-07-24T04:02:39;1.88;;;1.42;;
15240;SDS011;7723;52.170;9.978;2023-07-24T04:05:07;1.67;;;1.23;;
15240;SDS011;7723;52.170;9.978;2023-07-24T04:07:34;1.73;;;1.30;;
15240;SDS011;7723;52.170;9.978;2023-07-24T04:10:02;2.17;;;1.42;;
15240;SDS011;7723;52.170;9.978;2023-07-24T04:12:29;2.47;;;1.42;;
15240;SDS011;7723;52.170;9.978;2023-07-24T04:14:57;2.15;;;1.48;;
15240;SDS011;7723;52.170;9.978;2023-07-24T04:17:24;1.40;;;1.27;;
15240;SDS011;7723;52.170;9.978;2023-07-24T04:19:52;2.65;;;1.38;;
15240;SDS011;7723;52.170;9.978;2023-07-24T04:22:20;1.48;;;1.13;;
15240;SDS011;7723;52.170;9.978;2023-07-24T04:24:47;2.08;;;1.35;;
15240;SDS011;7723;52.170;9.978;2023-07-24T04:27:14;3.22;;;1.63;;
15240;SDS011;7723;52.170;9.978;2023-07-24T04:29:41;2.60;;;1.30;;
15240;SDS011;7723;52.170;9.978;2023-07-24T04:32:08;1.98;;;1.55;;
15240;SDS011;7723;52.170;9.978;2023-07-24T04:34:35;2.17;;;1.20;;
15240;SDS011;7723;52.170;9.978;2023-07-24T04:37:04;2.83;;;1.50;;
15240;SDS011;7723;52.170;9.978;2023-07-24T04:39:31;1.45;;;1.20;;
15240;SDS011;7723;52.170;9.978;2023-07-24T04:41:59;2.40;;;1.23;;
15240;SDS011;7723;52.170;9.978;2023-07-24T04:44:26;1.48;;;1.00;;
15240;SDS011;7723;52.170;9.978;2023-07-24T04:46:53;1.60;;;1.35;;
15240;SDS011;7723;52.170;9.978;2023-07-24T04:49:20;1.65;;;1.10;;
15240;SDS011;7723;52.170;9.978;2023-07-24T04:51:48;1.60;;;1.13;;
15240;SDS011;7723;52.170;9.978;2023-07-24T04:54:17;1.63;;;1.20;;
15240;SDS011;7723;52.170;9.978;2023-07-24T04:56:44;2.45;;;0.98;;
15240;SDS011;7723;52.170;9.978;2023-07-24T04:59:11;1.50;;;1.20;;
15240;SDS011;7723;52.170;9.978;2023-07-24T05:01:38;1.15;;;0.93;;
15240;SDS011;7723;52.170;9.978;2023-07-24T05:04:05;5.15;;;1.70;;
15240;SDS011;7723;52.170;9.978;2023-07-24T05:06:32;2.95;;;1.17;;
15240;SDS011;7723;52.170;9.978;2023-07-24T05:09:00;3.00;;;1.42;;
15240;SDS011;7723;52.170;9.978;2023-07-24T05:11:29;7.50;;;1.60;;
15240;SDS011;7723;52.170;9.978;2023-07-24T05:13:56;2.00;;;1.10;;
15240;SDS011;7723;52.170;9.978;2023-07-24T05:16:23;1.63;;;1.15;;
15240;SDS011;7723;52.170;9.978;2023-07-24T05:18:50;1.52;;;1.30;;
15240;SDS011;7723;52.170;9.978;2023-07-24T05:21:17;2.50;;;1.20;;
15240;SDS011;7723;52.170;9.978;2023-07-24T05:23:44;1.50;;;1.27;;
15240;SDS011;7723;52.170;9.978;2023-07-24T05:26:11;1.52;;;1.23;;
15240;SDS011;7723;52.170;9.978;2023-07-24T05:28:40;1.48;;;1.30;;
15240;SDS011;7723;52.170;9.978;2023-07-24T05:31:07;1.58;;;1.48;;
15240;SDS011;7723;52.170;9.978;2023-07-24T05:33:34;1.45;;;1.02;;
15240;SDS011;7723;52.170;9.978;2023-07-24T05:36:02;2.00;;;1.50;;
15240;SDS011;7723;52.170;9.978;2023-07-24T05:38:30;1.48;;;1.30;;
15240;SDS011;7723;52.170;9.978;2023-07-24T05:40:57;2.53;;;1.35;;
15240;SDS011;7723;52.170;9.978;2023-07-24T05:43:25;1.77;;;1.48;;
15240;SDS011;7723;52.170;9.978;2023-07-24T05:45:54;3.15;;;1.50;;
15240;SDS011;7723;52.170;9.978;2023-07-24T05:48:21;5.55;;;1.45;;
15240;SDS011;7723;52.170;9.978;2023-07-24T05:50:49;4.10;;;1.42;;
15240;SDS011;7723;52.170;9.978;2023-07-24T05:53:17;3.63;;;1.30;;
15240;SDS011;7723;52.170;9.978;2023-07-24T05:55:44;2.38;;;1.30;;
15240;SDS011;7723;52.170;9.978;2023-07-24T05:58:11;2.38;;;1.40;;
15240;SDS011;7723;52.170;9.978;2023-07-24T06:00:38;2.85;;;1.30;;
15240;SDS011;7723;52.170;9.978;2023-07-24T06:03:07;2.10;;;1.60;;
15240;SDS011;7723;52.170;9.978;2023-07-24T06:05:34;1.75;;;1.40;;
15240;SDS011;7723;52.170;9.978;2023-07-24T06:08:01;3.08;;;1.67;;
15240;SDS011;7723;52.170;9.978;2023-07-24T06:10:28;2.47;;;1.70;;
15240;SDS011;7723;52.170;9.978;2023-07-24T06:12:55;2.42;;;1.88;;
15240;SDS011;7723;52.170;9.978;2023-07-24T06:15:22;2.03;;;1.60;;
15240;SDS011;7723;52.170;9.978;2023-07-24T06:17:49;2.13;;;1.40;;
15240;SDS011;7723;52.170;9.978;2023-07-24T06:20:18;1.70;;;1.58;;
15240;SDS011;7723;52.170;9.978;2023-07-24T06:22:45;3.40;;;1.63;;
15240;SDS011;7723;52.170;9.978;2023-07-24T06:25:12;2.85;;;1.70;;
15240;SDS011;7723;52.170;9.978;2023-07-24T06:27:39;5.65;;;1.70;;
15240;SDS011;7723;52.170;9.978;2023-07-24T06:30:07;2.10;;;1.45;;
15240;SDS011;7723;52.170;9.978;2023-07-24T06:32:34;3.83;;;1.80;;
15240;SDS011;7723;52.170;9.978;2023-07-24T06:35:01;1.90;;;1.55;;
15240;SDS011;7723;52.170;9.978;2023-07-24T06:37:30;2.70;;;1.60;;
15240;SDS011;7723;52.170;9.978;2023-07-24T06:39:57;2.78;;;1.80;;
15240;SDS011;7723;52.170;9.978;2023-07-24T06:42:24;1.88;;;1.50;;
15240;SDS011;7723;52.170;9.978;2023-07-24T06:44:51;1.55;;;1.40;;
15240;SDS011;7723;52.170;9.978;2023-07-24T06:47:18;6.57;;;1.50;;
15240;SDS011;7723;52.170;9.978;2023-07-24T06:49:45;4.22;;;2.05;;
15240;SDS011;7723;52.170;9.978;2023-07-24T06:52:13;3.35;;;1.77;;
15240;SDS011;7723;52.170;9.978;2023-07-24T06:54:41;2.58;;;1.52;;
15240;SDS011;7723;52.170;9.978;2023-07-24T06:57:09;2.72;;;1.60;;
15240;SDS011;7723;52.170;9.978;2023-07-24T06:59:36;2.15;;;1.75;;
15240;SDS011;7723;52.170;9.978;2023-07-24T07:02:03;2.55;;;1.70;;
15240;SDS011;7723;52.170;9.978;2023-07-24T07:04:30;2.05;;;1.38;;
15240;SDS011;7723;52.170;9.978;2023-07-24T07:06:57;2.80;;;2.00;;
15240;SDS011;7723;52.170;9.978;2023-07-24T07:09:24;3.05;;;2.00;;
15240;SDS011;7723;52.170;9.978;2023-07-24T07:11:53;2.85;;;2.00;;
15240;SDS011;7723;52.170;9.978;2023-07-24T07:14:20;2.97;;;1.80;;
15240;SDS011;7723;52.170;9.978;2023-07-24T07:16:47;2.00;;;1.73;;
15240;SDS011;7723;52.170;9.978;2023-07-24T07:19:14;3.08;;;1.95;;
15240;SDS011;7723;52.170;9.978;2023-07-24T07:21:41;2.38;;;1.70;;
15240;SDS011;7723;52.170;9.978;2023-07-24T07:24:08;3.63;;;1.75;;
15240;SDS011;7723;52.170;9.978;2023-07-24T07:26:35;1.98;;;1.75;;
15240;SDS011;7723;52.170;9.978;2023-07-24T07:29:04;3.42;;;2.33;;
15240;SDS011;7723;52.170;9.978;2023-07-24T07:31:31;3.30;;;2.00;;
15240;SDS011;7723;52.170;9.978;2023-07-24T07:33:58;2.10;;;1.90;;
15240;SDS011;7723;52.170;9.978;2023-07-24T07:36:25;3.08;;;1.98;;
15240;SDS011;7723;52.170;9.978;2023-07-24T07:38:52;5.03;;;2.20;;
15240;SDS011;7723;52.170;9.978;2023-07-24T07:41:19;2.30;;;1.92;;
15240;SDS011;7723;52.170;9.978;2023-07-24T07:43:46;2.83;;;1.70;;
15240;SDS011;7723;52.170;9.978;2023-07-24T07:46:14;2.10;;;1.83;;
15240;SDS011;7723;52.170;9.978;2023-07-24T07:48:42;2.78;;;1.90;;
15240;SDS011;7723;52.170;9.978;2023-07-24T07:51:09;3.55;;;1.83;;
15240;SDS011;7723;52.170;9.978;2023-07-24T07:53:36;2.50;;;2.22;;
15240;SDS011;7723;52.170;9.978;2023-07-24T07:56:03;3.50;;;1.85;;
15240;SDS011;7723;52.170;9.978;2023-07-24T07:58:31;2.30;;;2.10;;
15240;SDS011;7723;52.170;9.978;2023-07-24T08:00:58;4.22;;;2.00;;
15240;SDS011;7723;52.170;9.978;2023-07-24T08:03:30;2.40;;;1.67;;
15240;SDS011;7723;52.170;9.978;2023-07-24T08:05:58;3.45;;;1.80;;
15240;SDS011;7723;52.170;9.978;2023-07-24T08:08:25;2.53;;;2.30;;
15240;SDS011;7723;52.170;9.978;2023-07-24T08:10:52;3.78;;;2.17;;
15240;SDS011;7723;52.170;9.978;2023-07-24T08:13:19;2.58;;;2.15;;
15240;SDS011;7723;52.170;9.978;2023-07-24T08:15:46;3.15;;;1.83;;
15240;SDS011;7723;52.170;9.978;2023-07-24T08:18:14;3.05;;;1.80;;
15240;SDS011;7723;52.170;9.978;2023-07-24T08:20:42;3.58;;;2.25;;
15240;SDS011;7723;52.170;9.978;2023-07-24T08:23:09;2.92;;;2.28;;
15240;SDS011;7723;52.170;9.978;2023-07-24T08:25:36;3.13;;;2.50;;
15240;SDS011;7723;52.170;9.978;2023-07-24T08:28:04;2.65;;;1.90;;
15240;SDS011;7723;52.170;9.978;2023-07-24T08:30:31;2.67;;;2.17;;
15240;SDS011;7723;52.170;9.978;2023-07-24T08:32:58;2.08;;;1.33;;
15240;SDS011;7723;52.170;9.978;2023-07-24T08:35:25;2.28;;;1.90;;
15240;SDS011;7723;52.170;9.978;2023-07-24T08:37:54;2.75;;;1.55;;
15240;SDS011;7723;52.170;9.978;2023-07-24T08:40:21;2.00;;;1.70;;
15240;SDS011;7723;52.170;9.978;2023-07-24T08:42:49;2.17;;;1.52;;
15240;SDS011;7723;52.170;9.978;2023-07-24T08:45:16;3.13;;;2.00;;
15240;SDS011;7723;52.170;9.978;2023-07-24T08:47:44;2.28;;;1.35;;
15240;SDS011;7723;52.170;9.978;2023-07-24T08:50:12;2.00;;;1.65;;
15240;SDS011;7723;52.170;9.978;2023-07-24T08:52:40;2.28;;;1.73;;
15240;SDS011;7723;52.170;9.978;2023-07-24T08:55:11;5.18;;;1.80;;
15240;SDS011;7723;52.170;9.978;2023-07-24T08:57:39;1.80;;;1.33;;
15240;SDS011;7723;52.170;9.978;2023-07-24T09:00:06;3.28;;;1.63;;
15240;SDS011;7723;52.170;9.978;2023-07-24T09:02:34;2.20;;;1.70;;
15240;SDS011;7723;52.170;9.978;2023-07-24T09:05:02;2.03;;;1.80;;
15240;SDS011;7723;52.170;9.978;2023-07-24T09:07:29;2.42;;;1.73;;
15240;SDS011;7723;52.170;9.978;2023-07-24T09:09:57;2.95;;;1.58;;
15240;SDS011;7723;52.170;9.978;2023-07-24T09:12:25;2.72;;;1.77;;
15240;SDS011;7723;52.170;9.978;2023-07-24T09:15:02;2.90;;;1.83;;
15240;SDS011;7723;52.170;9.978;2023-07-24T09:17:30;2.58;;;2.10;;
15240;SDS011;7723;52.170;9.978;2023-07-24T09:19:57;3.75;;;2.22;;
15240;SDS011;7723;52.170;9.978;2023-07-24T09:22:24;2.28;;;1.90;;
15240;SDS011;7723;52.170;9.978;2023-07-24T09:24:53;2.53;;;2.03;;
15240;SDS011;7723;52.170;9.978;2023-07-24T09:27:24;2.53;;;1.77;;
15240;SDS011;7723;52.170;9.978;2023-07-24T09:29:53;3.67;;;2.15;;
15240;SDS011;7723;52.170;9.978;2023-07-24T09:32:21;2.72;;;1.70;;
15240;SDS011;7723;52.170;9.978;2023-07-24T09:34:49;2.08;;;1.60;;
15240;SDS011;7723;52.170;9.978;2023-07-24T09:37:25;2.00;;;1.70;;
15240;SDS011;7723;52.170;9.978;2023-07-24T09:39:53;1.75;;;1.42;;
15240;SDS011;7723;52.170;9.978;2023-07-24T09:42:30;1.90;;;1.60;;
15240;SDS011;7723;52.170;9.978;2023-07-24T09:44:58;2.03;;;1.60;;
15240;SDS011;7723;52.170;9.978;2023-07-24T09:47:25;3.03;;;1.63;;
15240;SDS011;7723;52.170;9.978;2023-07-24T09:49:52;2.58;;;1.48;;
15240;SDS011;7723;52.170;9.978;2023-07-24T09:52:19;2.08;;;1.50;;
15240;SDS011;7723;52.170;9.978;2023-07-24T09:54:49;1.77;;;1.38;;
15240;SDS011;7723;52.170;9.978;2023-07-24T09:57:24;2.15;;;1.70;;
15240;SDS011;7723;52.170;9.978;2023-07-24T09:59:55;2.50;;;1.30;;
15240;SDS011;7723;52.170;9.978;2023-07-24T10:02:23;1.58;;;1.20;;
15240;SDS011;7723;52.170;9.978;2023-07-24T10:04:51;1.73;;;1.35;;
15240;SDS011;7723;52.170;9.978;2023-07-24T10:07:19;2.45;;;1.13;;
15240;SDS011;7723;52.170;9.978;2023-07-24T10:09:48;2.33;;;1.35;;
15240;SDS011;7723;52.170;9.978;2023-07-24T10:12:16;1.55;;;1.40;;
15240;SDS011;7723;52.170;9.978;2023-07-24T10:14:44;2.00;;;1.20;;
15240;SDS011;7723;52.170;9.978;2023-07-24T10:17:14;1.65;;;1.50;;
15240;SDS011;7723;52.170;9.978;2023-07-24T10:19:50;1.55;;;1.40;;
15240;SDS011;7723;52.170;9.978;2023-07-24T10:22:17;2.10;;;1.60;;
15240;SDS011;7723;52.170;9.978;2023-07-24T10:24:45;2.88;;;1.50;;
15240;SDS011;7723;52.170;9.978;2023-07-24T10:27:12;2.05;;;1.67;;
15240;SDS011;7723;52.170;9.978;2023-07-24T10:29:40;3.05;;;1.50;;
15240;SDS011;7723;52.170;9.978;2023-07-24T10:32:19;3.03;;;1.75;;
15240;SDS011;7723;52.170;9.978;2023-07-24T10:34:55;1.60;;;1.50;;
15240;SDS011;7723;52.170;9.978;2023-07-24T10:37:30;4.85;;;2.03;;
15240;SDS011;7723;52.170;9.978;2023-07-24T10:39:59;7.80;;;1.63;;
15240;SDS011;7723;52.170;9.978;2023-07-24T10:42:26;1.63;;;1.52;;
15240;SDS011;7723;52.170;9.978;2023-07-24T10:45:01;3.47;;;1.95;;
15240;SDS011;7723;52.170;9.978;2023-07-24T10:47:31;1.88;;;1.75;;
15240;SDS011;7723;52.170;9.978;2023-07-24T10:49:58;2.90;;;2.10;;
15240;SDS011;7723;52.170;9.978;2023-07-24T10:52:27;1.98;;;1.75;;
15240;SDS011;7723;52.170;9.978;2023-07-24T10:54:55;3.03;;;2.42;;
15240;SDS011;7723;52.170;9.978;2023-07-24T10:57:25;2.47;;;1.95;;
15240;SDS011;7723;52.170;9.978;2023-07-24T10:59:52;2.83;;;2.30;;
15240;SDS011;7723;52.170;9.978;2023-07-24T11:02:19;2.70;;;2.08;;
15240;SDS011;7723;52.170;9.978;2023-07-24T11:04:48;2.42;;;2.10;;
15240;SDS011;7723;52.170;9.978;2023-07-24T11:07:15;2.85;;;1.95;;
15240;SDS011;7723;52.170;9.978;2023-07-24T11:09:43;2.70;;;2.30;;
15240;SDS011;7723;52.170;9.978;2023-07-24T11:12:11;4.50;;;2.50;;
15240;SDS011;7723;52.170;9.978;2023-07-24T11:14:45;2.90;;;2.17;;
15240;SDS011;7723;52.170;9.978;2023-07-24T11:17:13;3.88;;;2.55;;
15240;SDS011;7723;52.170;9.978;2023-07-24T11:19:41;3.97;;;2.60;;
15240;SDS011;7723;52.170;9.978;2023-07-24T11:22:09;3.10;;;2.53;;
15240;SDS011;7723;52.170;9.978;2023-07-24T11:24:43;3.53;;;2.20;;
15240;SDS011;7723;52.170;9.978;2023-07-24T11:27:15;3.05;;;2.35;;
15240;SDS011;7723;52.170;9.978;2023-07-24T11:29:47;3.55;;;2.60;;
15240;SDS011;7723;52.170;9.978;2023-07-24T11:32:16;3.22;;;2.58;;
15240;SDS011;7723;52.170;9.978;2023-07-24T11:34:45;3.25;;;1.98;;
15240;SDS011;7723;52.170;9.978;2023-07-24T11:37:14;2.63;;;2.40;;
15240;SDS011;7723;52.170;9.978;2023-07-24T11:39:43;2.63;;;2.30;;
15240;SDS011;7723;52.170;9.978;2023-07-24T11:42:20;2.40;;;1.98;;
15240;SDS011;7723;52.170;9.978;2023-07-24T11:44:47;2.85;;;2.45;;
15240;SDS011;7723;52.170;9.978;2023-07-24T11:47:15;3.15;;;2.40;;
15240;SDS011;7723;52.170;9.978;2023-07-24T11:49:43;2.40;;;2.15;;
15240;SDS011;7723;52.170;9.978;2023-07-24T11:52:14;2.33;;;1.98;;
15240;SDS011;7723;52.170;9.978;2023-07-24T11:54:41;2.70;;;2.47;;
15240;SDS011;7723;52.170;9.978;2023-07-24T11:57:14;2.95;;;2.33;;
15240;SDS011;7723;52.170;9.978;2023-07-24T11:59:43;2.55;;;2.35;;
15240;SDS011;7723;52.170;9.978;2023-07-24T12:02:10;3.05;;;2.20;;
15240;SDS011;7723;52.170;9.978;2023-07-24T12:04:38;4.00;;;2.53;;
15240;SDS011;7723;52.170;9.978;2023-07-24T12:07:07;3.95;;;2.42;;
15240;SDS011;7723;52.170;9.978;2023-07-24T12:09:36;2.38;;;2.17;;
15240;SDS011;7723;52.170;9.978;2023-07-24T12:12:03;2.78;;;1.88;;
15240;SDS011;7723;52.170;9.978;2023-07-24T12:14:31;2.40;;;2.08;;
15240;SDS011;7723;52.170;9.978;2023-07-24T12:17:01;2.28;;;2.05;;
15240;SDS011;7723;52.170;9.978;2023-07-24T12:19:31;4.30;;;2.58;;
15240;SDS011;7723;52.170;9.978;2023-07-24T12:21:58;2.90;;;2.10;;
15240;SDS011;7723;52.170;9.978;2023-07-24T12:24:28;2.30;;;2.10;;
15240;SDS011;7723;52.170;9.978;2023-07-24T12:26:57;2.63;;;2.42;;
15240;SDS011;7723;52.170;9.978;2023-07-24T12:29:24;4.22;;;2.17;;
15240;SDS011;7723;52.170;9.978;2023-07-24T12:31:51;2.72;;;2.50;;
15240;SDS011;7723;52.170;9.978;2023-07-24T12:34:18;3.25;;;2.25;;
15240;SDS011;7723;52.170;9.978;2023-07-24T12:36:45;4.53;;;2.35;;
15240;SDS011;7723;52.170;9.978;2023-07-24T12:39:13;3.25;;;2.60;;
15240;SDS011;7723;52.170;9.978;2023-07-24T12:41:40;4.03;;;2.58;;
15240;SDS011;7723;52.170;9.978;2023-07-24T12:44:08;2.97;;;2.63;;
15240;SDS011;7723;52.170;9.978;2023-07-24T12:46:35;5.20;;;3.00;;
15240;SDS011;7723;52.170;9.978;2023-07-24T12:49:03;3.70;;;3.10;;
15240;SDS011;7723;52.170;9.978;2023-07-24T12:51:30;4.22;;;3.10;;
15240;SDS011;7723;52.170;9.978;2023-07-24T12:53:57;5.45;;;2.97;;
15240;SDS011;7723;52.170;9.978;2023-07-24T12:56:24;5.38;;;3.53;;
15240;SDS011;7723;52.170;9.978;2023-07-24T12:58:51;4.63;;;3.42;;
15240;SDS011;7723;52.170;9.978;2023-07-24T13:01:19;5.95;;;3.80;;
15240;SDS011;7723;52.170;9.978;2023-07-24T13:03:46;6.60;;;3.00;;
15240;SDS011;7723;52.170;9.978;2023-07-24T13:06:13;4.22;;;3.40;;
15240;SDS011;7723;52.170;9.978;2023-07-24T13:08:40;4.63;;;3.20;;
15240;SDS011;7723;52.170;9.978;2023-07-24T13:11:08;4.45;;;3.40;;
15240;SDS011;7723;52.170;9.978;2023-07-24T13:13:35;3.95;;;3.33;;
15240;SDS011;7723;52.170;9.978;2023-07-24T13:16:02;4.88;;;3.13;;
15240;SDS011;7723;52.170;9.978;2023-07-24T13:18:30;4.07;;;3.45;;
15240;SDS011;7723;52.170;9.978;2023-07-24T13:20:57;3.22;;;2.80;;
15240;SDS011;7723;52.170;9.978;2023-07-24T13:23:25;3.13;;;2.83;;
15240;SDS011;7723;52.170;9.978;2023-07-24T13:25:52;2.75;;;2.53;;
15240;SDS011;7723;52.170;9.978;2023-07-24T13:28:19;3.22;;;2.70;;
15240;SDS011;7723;52.170;9.978;2023-07-24T13:30:46;2.80;;;2.60;;
15240;SDS011;7723;52.170;9.978;2023-07-24T13:33:14;3.30;;;2.95;;
15240;SDS011;7723;52.170;9.978;2023-07-24T13:35:42;3.75;;;2.70;;
15240;SDS011;7723;52.170;9.978;2023-07-24T13:38:09;3.10;;;2.80;;
15240;SDS011;7723;52.170;9.978;2023-07-24T13:40:37;3.38;;;2.80;;
15240;SDS011;7723;52.170;9.978;2023-07-24T13:43:04;3.50;;;2.75;;
15240;SDS011;7723;52.170;9.978;2023-07-24T13:45:31;2.83;;;2.58;;
15240;SDS011;7723;52.170;9.978;2023-07-24T13:47:58;3.58;;;2.50;;
15240;SDS011;7723;52.170;9.978;2023-07-24T13:50:25;3.72;;;2.45;;
15240;SDS011;7723;52.170;9.978;2023-07-24T13:52:54;3.17;;;2.60;;
15240;SDS011;7723;52.170;9.978;2023-07-24T13:55:21;3.53;;;2.90;;
15240;SDS011;7723;52.170;9.978;2023-07-24T13:57:48;3.97;;;2.75;;
15240;SDS011;7723;52.170;9.978;2023-07-24T14:00:16;4.10;;;2.90;;
15240;SDS011;7723;52.170;9.978;2023-07-24T14:02:43;4.78;;;2.90;;
15240;SDS011;7723;52.170;9.978;2023-07-24T14:05:10;5.00;;;2.70;;
15240;SDS011;7723;52.170;9.978;2023-07-24T14:07:37;5.20;;;2.85;;
15240;SDS011;7723;52.170;9.978;2023-07-24T14:10:07;4.20;;;3.38;;
15240;SDS011;7723;52.170;9.978;2023-07-24T14:12:35;4.25;;;3.40;;
15240;SDS011;7723;52.170;9.978;2023-07-24T14:15:02;3.35;;;3.05;;
15240;SDS011;7723;52.170;9.978;2023-07-24T14:17:30;3.75;;;3.45;;
15240;SDS011;7723;52.170;9.978;2023-07-24T14:19:58;4.07;;;3.45;;
15240;SDS011;7723;52.170;9.978;2023-07-24T14:22:25;4.05;;;3.40;;
15240;SDS011;7723;52.170;9.978;2023-07-24T14:24:52;3.90;;;3.25;;
15240;SDS011;7723;52.170;9.978;2023-07-24T14:27:20;5.40;;;3.95;;
15240;SDS011;7723;52.170;9.978;2023-07-24T14:29:47;4.15;;;1.98;;
15240;SDS011;7723;52.170;9.978;2023-07-24T14:32:14;3.28;;;1.45;;
15240;SDS011;7723;52.170;9.978;2023-07-24T14:34:41;4.22;;;2.10;;
15240;SDS011;7723;52.170;9.978;2023-07-24T14:37:09;2.33;;;1.63;;
15240;SDS011;7723;52.170;9.978;2023-07-24T14:39:36;2.13;;;1.92;;
15240;SDS011;7723;52.170;9.978;2023-07-24T14:42:04;3.58;;;2.30;;
15240;SDS011;7723;52.170;9.978;2023-07-24T14:44:33;2.53;;;2.20;;
15240;SDS011;7723;52.170;9.978;2023-07-24T14:47:00;2.80;;;2.15;;
15240;SDS011;7723;52.170;9.978;2023-07-24T14:49:27;3.40;;;2.38;;
15240;SDS011;7723;52.170;9.978;2023-07-24T14:51:54;2.60;;;2.10;;
15240;SDS011;7723;52.170;9.978;2023-07-24T14:54:21;2.55;;;2.33;;
15240;SDS011;7723;52.170;9.978;2023-07-24T14:56:48;3.15;;;2.35;;
15240;SDS011;7723;52.170;9.978;2023-07-24T14:59:16;4.13;;;1.92;;
15240;SDS011;7723;52.170;9.978;2023-07-24T15:01:44;4.18;;;2.13;;
15240;SDS011;7723;52.170;9.978;2023-07-24T15:04:11;4.03;;;2.00;;